sensor_id;sensor_type;location;lat;lon;timestamp;P1;durP1;ratioP1;P2;durP2;ratioP2
23346;SDS011;36852;45.466;11.066;2023-08-31T00:00:39;2.55;;;0.90;;
23346;SDS011;36852;45.466;11.066;2023-08-31T00:03:08;1.85;;;0.72;;
23346;SDS011;36852;45.466;11.066;2023-08-31T00:05:41;3.05;;;0.82;;
23346;SDS011;36852;45.466;11.066;2023-08-31T00:08:10;1.50;;;0.80;;
23346;SDS011;36852;45.466;11.066;2023-08-31T00:10:41;3.12;;;1.07;;
23346;SDS011;36852;45.466;11.066;2023-08-31T00:13:09;2.55;;;0.70;;
23346;SDS011;36852;45.466;11.066;2023-08-31T00:15:37;0.90;;;0.65;;
23346;SDS011;36852;45.466;11.066;2023-08-31T00:18:05;2.05;;;0.78;;
23346;SDS011;36852;45.466;11.066;2023-08-31T00:20:33;1.15;;;0.70;;
23346;SDS011;36852;45.466;11.066;2023-08-31T00:23:02;2.37;;;0.85;;
23346;SDS011;36852;45.466;11.066;2023-08-31T00:25:32;0.70;;;0.60;;
23346;SDS011;36852;45.466;11.066;2023-08-31T00:28:00;1.67;;;0.60;;
23346;SDS011;36852;45.466;11.066;2023-08-31T00:30:30;1.47;;;0.57;;
23346;SDS011;36852;45.466;11.066;2023-08-31T00:33:00;1.15;;;0.60;;
23346;SDS011;36852;45.466;11.066;2023-08-31T00:35:28;0.50;;;0.50;;
23346;SDS011;36852;45.466;11.066;2023-08-31T00:37:56;1.05;;;0.95;;
23346;SDS011;36852;45.466;11.066;2023-08-31T00:40:28;4.00;;;0.55;;
23346;SDS011;36852;45.466;11.066;2023-08-31T00:42:57;4.45;;;0.60;;
23346;SDS011;36852;45.466;11.066;2023-08-31T00:45:26;4.33;;;1.22;;
23346;SDS011;36852;45.466;11.066;2023-08-31T00:47:54;2.60;;;0.88;;
23346;SDS011;36852;45.466;11.066;2023-08-31T00:50:25;2.37;;;0.70;;
23346;SDS011;36852;45.466;11.066;2023-08-31T00:52:54;2.00;;;0.68;;
23346;SDS011;36852;45.466;11.066;2023-08-31T00:55:22;1.75;;;0.70;;
23346;SDS011;36852;45.466;11.066;2023-08-31T00:57:50;1.98;;;0.80;;
23346;SDS011;36852;45.466;11.066;2023-08-31T01:00:19;1.32;;;0.80;;
23346;SDS011;36852;45.466;11.066;2023-08-31T01:03:05;1.62;;;0.70;;
23346;SDS011;36852;45.466;11.066;2023-08-31T01:08:21;1.57;;;0.80;;
23346;SDS011;36852;45.466;11.066;2023-08-31T01:11:08;1.05;;;0.95;;
23346;SDS011;36852;45.466;11.066;2023-08-31T01:13:57;4.42;;;1.00;;
23346;SDS011;36852;45.466;11.066;2023-08-31T01:16:26;2.83;;;1.10;;
23346;SDS011;36852;45.466;11.066;2023-08-31T01:18:55;2.15;;;0.90;;
23346;SDS011;36852;45.466;11.066;2023-08-31T01:21:25;1.10;;;1.00;;
23346;SDS011;36852;45.466;11.066;2023-08-31T01:24:07;1.70;;;0.95;;
23346;SDS011;36852;45.466;11.066;2023-08-31T01:26:37;1.92;;;1.02;;
23346;SDS011;36852;45.466;11.066;2023-08-31T01:29:05;1.98;;;0.88;;
23346;SDS011;36852;45.466;11.066;2023-08-31T01:31:41;1.20;;;0.98;;
23346;SDS011;36852;45.466;11.066;2023-08-31T01:34:11;1.77;;;0.98;;
23346;SDS011;36852;45.466;11.066;2023-08-31T01:36:41;1.90;;;0.72;;
23346;SDS011;36852;45.466;11.066;2023-08-31T01:39:13;2.52;;;1.00;;
23346;SDS011;36852;45.466;11.066;2023-08-31T01:41:46;3.98;;;1.10;;
23346;SDS011;36852;45.466;11.066;2023-08-31T01:44:16;1.55;;;0.88;;
23346;SDS011;36852;45.466;11.066;2023-08-31T01:46:47;2.17;;;0.80;;
23346;SDS011;36852;45.466;11.066;2023-08-31T01:49:17;3.67;;;1.10;;
23346;SDS011;36852;45.466;11.066;2023-08-31T01:51:49;1.47;;;0.90;;
23346;SDS011;36852;45.466;11.066;2023-08-31T01:54:18;3.62;;;0.82;;
23346;SDS011;36852;45.466;11.066;2023-08-31T01:56:48;1.12;;;1.02;;
23346;SDS011;36852;45.466;11.066;2023-08-31T01:59:16;2.85;;;0.80;;
23346;SDS011;36852;45.466;11.066;2023-08-31T02:01:44;2.20;;;0.82;;
23346;SDS011;36852;45.466;11.066;2023-08-31T02:04:12;1.22;;;1.02;;
23346;SDS011;36852;45.466;11.066;2023-08-31T02:06:40;1.00;;;0.95;;
23346;SDS011;36852;45.466;11.066;2023-08-31T02:09:12;3.08;;;1.90;;
23346;SDS011;36852;45.466;11.066;2023-08-31T02:11:41;2.08;;;1.00;;
23346;SDS011;36852;45.466;11.066;2023-08-31T02:14:09;1.62;;;1.10;;
23346;SDS011;36852;45.466;11.066;2023-08-31T02:16:38;3.05;;;1.05;;
23346;SDS011;36852;45.466;11.066;2023-08-31T02:19:07;2.25;;;0.80;;
23346;SDS011;36852;45.466;11.066;2023-08-31T02:21:36;2.67;;;1.02;;
23346;SDS011;36852;45.466;11.066;2023-08-31T02:24:04;1.27;;;1.17;;
23346;SDS011;36852;45.466;11.066;2023-08-31T02:26:35;1.87;;;1.12;;
23346;SDS011;36852;45.466;11.066;2023-08-31T02:29:03;4.00;;;1.22;;
23346;SDS011;36852;45.466;11.066;2023-08-31T02:31:34;1.72;;;1.25;;
23346;SDS011;36852;45.466;11.066;2023-08-31T02:34:04;9.10;;;1.10;;
23346;SDS011;36852;45.466;11.066;2023-08-31T02:36:32;1.10;;;1.00;;
23346;SDS011;36852;45.466;11.066;2023-08-31T02:39:00;2.17;;;1.30;;
23346;SDS011;36852;45.466;11.066;2023-08-31T02:41:31;1.20;;;1.10;;
23346;SDS011;36852;45.466;11.066;2023-08-31T02:43:59;7.10;;;1.40;;
23346;SDS011;36852;45.466;11.066;2023-08-31T02:46:26;2.87;;;1.20;;
23346;SDS011;36852;45.466;11.066;2023-08-31T02:48:58;1.77;;;1.20;;
23346;SDS011;36852;45.466;11.066;2023-08-31T02:51:27;5.10;;;1.60;;
23346;SDS011;36852;45.466;11.066;2023-08-31T02:53:56;3.30;;;1.60;;
23346;SDS011;36852;45.466;11.066;2023-08-31T02:56:24;8.45;;;1.65;;
23346;SDS011;36852;45.466;11.066;2023-08-31T02:58:51;2.10;;;1.40;;
23346;SDS011;36852;45.466;11.066;2023-08-31T03:01:19;3.70;;;1.62;;
23346;SDS011;36852;45.466;11.066;2023-08-31T03:03:47;4.47;;;1.35;;
23346;SDS011;36852;45.466;11.066;2023-08-31T03:06:15;3.30;;;1.52;;
23346;SDS011;36852;45.466;11.066;2023-08-31T03:08:42;2.80;;;1.72;;
23346;SDS011;36852;45.466;11.066;2023-08-31T03:11:11;5.42;;;1.60;;
23346;SDS011;36852;45.466;11.066;2023-08-31T03:13:43;4.83;;;2.05;;
23346;SDS011;36852;45.466;11.066;2023-08-31T03:16:11;3.45;;;1.50;;
23346;SDS011;36852;45.466;11.066;2023-08-31T03:18:41;3.05;;;1.40;;
23346;SDS011;36852;45.466;11.066;2023-08-31T03:21:09;5.80;;;1.85;;
23346;SDS011;36852;45.466;11.066;2023-08-31T03:23:38;2.35;;;1.40;;
23346;SDS011;36852;45.466;11.066;2023-08-31T03:26:07;2.25;;;1.47;;
23346;SDS011;36852;45.466;11.066;2023-08-31T03:28:35;2.20;;;1.85;;
23346;SDS011;36852;45.466;11.066;2023-08-31T03:31:03;4.92;;;1.60;;
23346;SDS011;36852;45.466;11.066;2023-08-31T03:33:34;4.12;;;1.60;;
23346;SDS011;36852;45.466;11.066;2023-08-31T03:36:03;3.75;;;1.60;;
23346;SDS011;36852;45.466;11.066;2023-08-31T03:38:35;2.60;;;1.60;;
23346;SDS011;36852;45.466;11.066;2023-08-31T03:41:05;1.87;;;1.67;;
23346;SDS011;36852;45.466;11.066;2023-08-31T03:43:33;4.33;;;1.70;;
23346;SDS011;36852;45.466;11.066;2023-08-31T03:46:00;2.27;;;1.60;;
23346;SDS011;36852;45.466;11.066;2023-08-31T03:48:28;3.42;;;1.55;;
23346;SDS011;36852;45.466;11.066;2023-08-31T03:50:58;3.60;;;1.65;;
23346;SDS011;36852;45.466;11.066;2023-08-31T03:53:25;2.08;;;1.25;;
23346;SDS011;36852;45.466;11.066;2023-08-31T03:55:55;2.70;;;1.67;;
23346;SDS011;36852;45.466;11.066;2023-08-31T03:58:23;6.70;;;1.52;;
23346;SDS011;36852;45.466;11.066;2023-08-31T04:00:52;2.75;;;1.50;;
23346;SDS011;36852;45.466;11.066;2023-08-31T04:03:20;2.40;;;1.50;;
23346;SDS011;36852;45.466;11.066;2023-08-31T04:05:53;3.47;;;1.60;;
23346;SDS011;36852;45.466;11.066;2023-08-31T04:08:22;3.15;;;1.57;;
23346;SDS011;36852;45.466;11.066;2023-08-31T04:10:50;3.35;;;1.52;;
23346;SDS011;36852;45.466;11.066;2023-08-31T04:13:17;3.08;;;1.77;;
23346;SDS011;36852;45.466;11.066;2023-08-31T04:15:46;4.28;;;1.70;;
23346;SDS011;36852;45.466;11.066;2023-08-31T04:18:14;2.65;;;1.95;;
23346;SDS011;36852;45.466;11.066;2023-08-31T04:23:18;5.05;;;2.02;;
23346;SDS011;36852;45.466;11.066;2023-08-31T04:25:47;4.90;;;1.60;;
23346;SDS011;36852;45.466;11.066;2023-08-31T04:28:15;2.55;;;1.70;;
23346;SDS011;36852;45.466;11.066;2023-08-31T04:30:43;2.80;;;1.72;;
23346;SDS011;36852;45.466;11.066;2023-08-31T04:33:14;1.72;;;1.60;;
23346;SDS011;36852;45.466;11.066;2023-08-31T04:35:43;3.40;;;1.62;;
23346;SDS011;36852;45.466;11.066;2023-08-31T04:38:11;3.65;;;1.60;;
23346;SDS011;36852;45.466;11.066;2023-08-31T04:40:39;1.95;;;1.50;;
23346;SDS011;36852;45.466;11.066;2023-08-31T04:43:07;2.02;;;1.50;;
23346;SDS011;36852;45.466;11.066;2023-08-31T04:45:35;4.37;;;1.77;;
23346;SDS011;36852;45.466;11.066;2023-08-31T04:48:03;5.42;;;1.72;;
23346;SDS011;36852;45.466;11.066;2023-08-31T04:50:33;3.15;;;1.60;;
23346;SDS011;36852;45.466;11.066;2023-08-31T04:53:01;4.17;;;2.00;;
23346;SDS011;36852;45.466;11.066;2023-08-31T04:55:32;6.85;;;1.67;;
23346;SDS011;36852;45.466;11.066;2023-08-31T04:58:00;2.10;;;1.70;;
23346;SDS011;36852;45.466;11.066;2023-08-31T05:00:28;5.28;;;1.70;;
23346;SDS011;36852;45.466;11.066;2023-08-31T05:02:57;3.20;;;1.62;;
23346;SDS011;36852;45.466;11.066;2023-08-31T05:05:25;2.20;;;1.70;;
23346;SDS011;36852;45.466;11.066;2023-08-31T05:07:53;4.72;;;1.67;;
23346;SDS011;36852;45.466;11.066;2023-08-31T05:10:21;3.27;;;1.70;;
23346;SDS011;36852;45.466;11.066;2023-08-31T05:12:49;5.20;;;1.20;;
23346;SDS011;36852;45.466;11.066;2023-08-31T05:15:17;2.83;;;1.32;;
23346;SDS011;36852;45.466;11.066;2023-08-31T05:17:45;8.35;;;2.37;;
23346;SDS011;36852;45.466;11.066;2023-08-31T05:20:15;7.22;;;1.62;;
23346;SDS011;36852;45.466;11.066;2023-08-31T05:22:43;15.80;;;3.30;;
23346;SDS011;36852;45.466;11.066;2023-08-31T05:25:11;14.60;;;3.10;;
23346;SDS011;36852;45.466;11.066;2023-08-31T05:27:40;9.83;;;2.30;;
23346;SDS011;36852;45.466;11.066;2023-08-31T05:30:09;12.18;;;2.92;;
23346;SDS011;36852;45.466;11.066;2023-08-31T05:32:39;15.88;;;2.45;;
23346;SDS011;36852;45.466;11.066;2023-08-31T05:35:07;9.45;;;2.02;;
23346;SDS011;36852;45.466;11.066;2023-08-31T05:37:36;4.45;;;1.42;;
23346;SDS011;36852;45.466;11.066;2023-08-31T05:40:05;8.30;;;1.02;;
23346;SDS011;36852;45.466;11.066;2023-08-31T05:42:36;11.30;;;1.95;;
23346;SDS011;36852;45.466;11.066;2023-08-31T05:45:07;17.45;;;1.62;;
23346;SDS011;36852;45.466;11.066;2023-08-31T05:47:36;12.55;;;1.62;;
23346;SDS011;36852;45.466;11.066;2023-08-31T05:50:06;10.20;;;4.35;;
23346;SDS011;36852;45.466;11.066;2023-08-31T05:52:34;13.88;;;4.17;;
23346;SDS011;36852;45.466;11.066;2023-08-31T05:55:03;7.45;;;0.98;;
23346;SDS011;36852;45.466;11.066;2023-08-31T05:57:32;12.60;;;1.07;;
23346;SDS011;36852;45.466;11.066;2023-08-31T06:00:02;10.15;;;1.25;;
23346;SDS011;36852;45.466;11.066;2023-08-31T06:02:33;3.67;;;0.75;;
23346;SDS011;36852;45.466;11.066;2023-08-31T06:05:01;3.40;;;0.72;;
23346;SDS011;36852;45.466;11.066;2023-08-31T06:07:31;1.52;;;0.93;;
23346;SDS011;36852;45.466;11.066;2023-08-31T06:09:59;3.62;;;0.53;;
23346;SDS011;36852;45.466;11.066;2023-08-31T06:12:27;2.15;;;0.60;;
23346;SDS011;36852;45.466;11.066;2023-08-31T06:14:54;4.72;;;0.50;;
23346;SDS011;36852;45.466;11.066;2023-08-31T06:17:23;1.98;;;0.62;;
23346;SDS011;36852;45.466;11.066;2023-08-31T06:19:54;3.47;;;0.45;;
23346;SDS011;36852;45.466;11.066;2023-08-31T06:22:22;3.20;;;0.60;;
23346;SDS011;36852;45.466;11.066;2023-08-31T06:24:51;1.85;;;0.40;;
23346;SDS011;36852;45.466;11.066;2023-08-31T06:27:22;4.97;;;1.12;;
23346;SDS011;36852;45.466;11.066;2023-08-31T06:29:51;1.75;;;0.30;;
23346;SDS011;36852;45.466;11.066;2023-08-31T06:32:22;3.60;;;0.60;;
23346;SDS011;36852;45.466;11.066;2023-08-31T06:34:50;0.75;;;0.37;;
23346;SDS011;36852;45.466;11.066;2023-08-31T06:37:19;1.35;;;0.57;;
23346;SDS011;36852;45.466;11.066;2023-08-31T06:39:47;1.40;;;0.30;;
23346;SDS011;36852;45.466;11.066;2023-08-31T06:42:15;3.83;;;0.50;;
23346;SDS011;36852;45.466;11.066;2023-08-31T06:44:43;1.32;;;0.30;;
23346;SDS011;36852;45.466;11.066;2023-08-31T06:47:11;1.25;;;0.40;;
23346;SDS011;36852;45.466;11.066;2023-08-31T06:49:40;0.47;;;0.40;;
23346;SDS011;36852;45.466;11.066;2023-08-31T06:52:09;1.50;;;0.60;;
23346;SDS011;36852;45.466;11.066;2023-08-31T06:54:40;3.25;;;0.80;;
23346;SDS011;36852;45.466;11.066;2023-08-31T06:57:09;3.02;;;0.60;;
23346;SDS011;36852;45.466;11.066;2023-08-31T06:59:37;1.45;;;0.60;;
23346;SDS011;36852;45.466;11.066;2023-08-31T07:02:06;2.08;;;0.95;;
23346;SDS011;36852;45.466;11.066;2023-08-31T07:04:34;4.03;;;0.93;;
23346;SDS011;36852;45.466;11.066;2023-08-31T07:07:02;3.70;;;1.47;;
23346;SDS011;36852;45.466;11.066;2023-08-31T07:09:30;2.90;;;1.22;;
23346;SDS011;36852;45.466;11.066;2023-08-31T07:11:59;4.45;;;1.30;;
23346;SDS011;36852;45.466;11.066;2023-08-31T07:14:28;6.87;;;1.77;;
23346;SDS011;36852;45.466;11.066;2023-08-31T07:16:57;8.30;;;1.70;;
23346;SDS011;36852;45.466;11.066;2023-08-31T07:19:25;2.40;;;1.27;;
23346;SDS011;36852;45.466;11.066;2023-08-31T07:21:54;6.00;;;1.40;;
23346;SDS011;36852;45.466;11.066;2023-08-31T07:24:22;7.80;;;1.50;;
23346;SDS011;36852;45.466;11.066;2023-08-31T07:26:50;3.72;;;1.17;;
23346;SDS011;36852;45.466;11.066;2023-08-31T07:29:18;4.97;;;2.08;;
23346;SDS011;36852;45.466;11.066;2023-08-31T07:31:46;4.53;;;1.70;;
23346;SDS011;36852;45.466;11.066;2023-08-31T07:34:14;7.17;;;1.82;;
23346;SDS011;36852;45.466;11.066;2023-08-31T07:36:41;5.53;;;1.90;;
23346;SDS011;36852;45.466;11.066;2023-08-31T07:39:16;5.05;;;2.27;;
23346;SDS011;36852;45.466;11.066;2023-08-31T07:41:47;11.33;;;2.05;;
23346;SDS011;36852;45.466;11.066;2023-08-31T07:44:17;6.58;;;1.87;;
23346;SDS011;36852;45.466;11.066;2023-08-31T07:46:46;7.45;;;2.10;;
23346;SDS011;36852;45.466;11.066;2023-08-31T07:49:19;5.50;;;1.60;;
23346;SDS011;36852;45.466;11.066;2023-08-31T07:51:48;6.62;;;2.67;;
23346;SDS011;36852;45.466;11.066;2023-08-31T07:54:23;9.48;;;2.20;;
23346;SDS011;36852;45.466;11.066;2023-08-31T07:56:49;5.95;;;1.98;;
23346;SDS011;36852;45.466;11.066;2023-08-31T07:59:20;6.22;;;2.02;;
23346;SDS011;36852;45.466;11.066;2023-08-31T08:01:48;4.33;;;2.30;;
23346;SDS011;36852;45.466;11.066;2023-08-31T08:04:16;4.58;;;1.90;;
23346;SDS011;36852;45.466;11.066;2023-08-31T08:06:46;4.47;;;2.02;;
23346;SDS011;36852;45.466;11.066;2023-08-31T08:09:16;7.20;;;2.95;;
23346;SDS011;36852;45.466;11.066;2023-08-31T08:11:45;6.58;;;2.05;;
23346;SDS011;36852;45.466;11.066;2023-08-31T08:14:13;6.30;;;2.22;;
23346;SDS011;36852;45.466;11.066;2023-08-31T08:16:43;11.50;;;6.95;;
23346;SDS011;36852;45.466;11.066;2023-08-31T08:19:11;12.07;;;5.28;;
23346;SDS011;36852;45.466;11.066;2023-08-31T08:21:39;10.18;;;2.92;;
23346;SDS011;36852;45.466;11.066;2023-08-31T08:24:07;22.95;;;4.90;;
23346;SDS011;36852;45.466;11.066;2023-08-31T08:26:35;2.67;;;1.92;;
23346;SDS011;36852;45.466;11.066;2023-08-31T08:29:03;2.58;;;2.10;;
23346;SDS011;36852;45.466;11.066;2023-08-31T08:31:35;7.80;;;1.87;;
23346;SDS011;36852;45.466;11.066;2023-08-31T08:34:03;5.05;;;1.87;;
23346;SDS011;36852;45.466;11.066;2023-08-31T08:36:31;6.83;;;2.17;;
23346;SDS011;36852;45.466;11.066;2023-08-31T08:39:02;4.60;;;2.42;;
23346;SDS011;36852;45.466;11.066;2023-08-31T08:41:31;3.33;;;1.85;;
23346;SDS011;36852;45.466;11.066;2023-08-31T08:44:01;4.12;;;2.10;;
23346;SDS011;36852;45.466;11.066;2023-08-31T08:46:33;7.17;;;1.72;;
23346;SDS011;36852;45.466;11.066;2023-08-31T08:49:01;5.95;;;2.22;;
23346;SDS011;36852;45.466;11.066;2023-08-31T08:51:30;5.45;;;1.95;;
23346;SDS011;36852;45.466;11.066;2023-08-31T08:53:59;4.28;;;2.58;;
23346;SDS011;36852;45.466;11.066;2023-08-31T08:56:27;6.28;;;2.65;;
23346;SDS011;36852;45.466;11.066;2023-08-31T08:58:55;7.75;;;2.77;;
23346;SDS011;36852;45.466;11.066;2023-08-31T09:01:23;4.20;;;1.70;;
23346;SDS011;36852;45.466;11.066;2023-08-31T09:03:52;4.95;;;1.77;;
23346;SDS011;36852;45.466;11.066;2023-08-31T09:06:20;4.03;;;1.42;;
23346;SDS011;36852;45.466;11.066;2023-08-31T09:08:54;3.40;;;1.55;;
23346;SDS011;36852;45.466;11.066;2023-08-31T09:11:24;3.17;;;1.87;;
23346;SDS011;36852;45.466;11.066;2023-08-31T09:13:52;1.77;;;1.45;;
23346;SDS011;36852;45.466;11.066;2023-08-31T09:16:26;4.25;;;1.27;;
23346;SDS011;36852;45.466;11.066;2023-08-31T09:18:56;1.12;;;0.57;;
23346;SDS011;36852;45.466;11.066;2023-08-31T09:21:35;0.90;;;0.30;;
23346;SDS011;36852;45.466;11.066;2023-08-31T09:24:07;1.17;;;0.40;;
23346;SDS011;36852;45.466;11.066;2023-08-31T09:27:18;5.08;;;1.02;;
23346;SDS011;36852;45.466;11.066;2023-08-31T09:29:13;1.20;;;0.88;;
23346;SDS011;36852;45.466;11.066;2023-08-31T09:31:43;1.75;;;0.47;;
23346;SDS011;36852;45.466;11.066;2023-08-31T09:34:12;2.37;;;1.00;;
23346;SDS011;36852;45.466;11.066;2023-08-31T09:36:43;1.50;;;1.15;;
23346;SDS011;36852;45.466;11.066;2023-08-31T09:39:13;3.12;;;1.40;;
23346;SDS011;36852;45.466;11.066;2023-08-31T09:41:54;1.72;;;0.90;;
23346;SDS011;36852;45.466;11.066;2023-08-31T09:44:22;1.30;;;0.95;;
23346;SDS011;36852;45.466;11.066;2023-08-31T09:46:50;1.98;;;1.00;;
23346;SDS011;36852;45.466;11.066;2023-08-31T09:49:19;8.85;;;1.30;;
23346;SDS011;36852;45.466;11.066;2023-08-31T09:51:50;2.87;;;0.90;;
23346;SDS011;36852;45.466;11.066;2023-08-31T09:54:19;6.47;;;1.00;;
23346;SDS011;36852;45.466;11.066;2023-08-31T09:56:49;3.55;;;0.90;;
23346;SDS011;36852;45.466;11.066;2023-08-31T09:59:16;3.33;;;0.95;;
23346;SDS011;36852;45.466;11.066;2023-08-31T10:01:45;3.35;;;1.05;;
23346;SDS011;36852;45.466;11.066;2023-08-31T10:04:14;4.35;;;1.27;;
23346;SDS011;36852;45.466;11.066;2023-08-31T10:06:43;3.22;;;0.90;;
23346;SDS011;36852;45.466;11.066;2023-08-31T10:09:12;1.07;;;0.65;;
23346;SDS011;36852;45.466;11.066;2023-08-31T10:11:42;1.37;;;0.62;;
23346;SDS011;36852;45.466;11.066;2023-08-31T10:14:11;4.20;;;0.72;;
23346;SDS011;36852;45.466;11.066;2023-08-31T10:16:40;3.70;;;1.02;;
23346;SDS011;36852;45.466;11.066;2023-08-31T10:19:11;2.55;;;0.78;;
23346;SDS011;36852;45.466;11.066;2023-08-31T10:21:42;2.33;;;0.95;;
23346;SDS011;36852;45.466;11.066;2023-08-31T10:24:11;10.40;;;1.75;;
23346;SDS011;36852;45.466;11.066;2023-08-31T10:26:41;2.60;;;1.22;;
23346;SDS011;36852;45.466;11.066;2023-08-31T10:29:25;6.65;;;1.32;;
23346;SDS011;36852;45.466;11.066;2023-08-31T10:31:41;6.50;;;1.57;;
23346;SDS011;36852;45.466;11.066;2023-08-31T10:34:12;2.17;;;0.70;;
23346;SDS011;36852;45.466;11.066;2023-08-31T10:36:43;2.55;;;0.65;;
23346;SDS011;36852;45.466;11.066;2023-08-31T10:39:17;2.65;;;1.35;;
23346;SDS011;36852;45.466;11.066;2023-08-31T10:44:23;4.22;;;0.80;;
23346;SDS011;36852;45.466;11.066;2023-08-31T10:46:52;2.75;;;1.20;;
23346;SDS011;36852;45.466;11.066;2023-08-31T10:49:21;2.40;;;1.10;;
23346;SDS011;36852;45.466;11.066;2023-08-31T10:51:56;1.50;;;1.10;;
23346;SDS011;36852;45.466;11.066;2023-08-31T10:57:03;1.90;;;0.90;;
23346;SDS011;36852;45.466;11.066;2023-08-31T10:59:40;2.58;;;0.90;;
23346;SDS011;36852;45.466;11.066;2023-08-31T11:05:06;3.05;;;1.47;;
23346;SDS011;36852;45.466;11.066;2023-08-31T11:07:47;2.50;;;1.10;;
23346;SDS011;36852;45.466;11.066;2023-08-31T11:10:19;2.40;;;1.22;;
23346;SDS011;36852;45.466;11.066;2023-08-31T11:12:50;1.45;;;1.20;;
23346;SDS011;36852;45.466;11.066;2023-08-31T11:15:22;3.15;;;1.50;;
23346;SDS011;36852;45.466;11.066;2023-08-31T11:17:53;2.72;;;1.05;;
23346;SDS011;36852;45.466;11.066;2023-08-31T11:20:23;1.98;;;1.47;;
23346;SDS011;36852;45.466;11.066;2023-08-31T11:22:54;0.85;;;0.72;;
23346;SDS011;36852;45.466;11.066;2023-08-31T11:25:22;2.12;;;1.07;;
23346;SDS011;36852;45.466;11.066;2023-08-31T11:27:53;4.42;;;1.10;;
23346;SDS011;36852;45.466;11.066;2023-08-31T11:30:22;1.30;;;1.05;;
23346;SDS011;36852;45.466;11.066;2023-08-31T11:32:52;3.98;;;1.40;;
23346;SDS011;36852;45.466;11.066;2023-08-31T11:35:21;4.10;;;2.08;;
23346;SDS011;36852;45.466;11.066;2023-08-31T11:37:51;2.65;;;0.98;;
23346;SDS011;36852;45.466;11.066;2023-08-31T11:40:21;2.05;;;1.37;;
23346;SDS011;36852;45.466;11.066;2023-08-31T11:42:50;1.20;;;0.90;;
23346;SDS011;36852;45.466;11.066;2023-08-31T11:45:19;1.37;;;1.25;;
23346;SDS011;36852;45.466;11.066;2023-08-31T11:47:50;1.60;;;0.90;;
23346;SDS011;36852;45.466;11.066;2023-08-31T11:50:19;1.87;;;1.00;;
23346;SDS011;36852;45.466;11.066;2023-08-31T11:52:48;3.65;;;1.27;;
23346;SDS011;36852;45.466;11.066;2023-08-31T11:55:18;1.12;;;0.90;;
23346;SDS011;36852;45.466;11.066;2023-08-31T11:57:54;2.30;;;1.07;;
23346;SDS011;36852;45.466;11.066;2023-08-31T12:00:21;1.07;;;0.90;;
23346;SDS011;36852;45.466;11.066;2023-08-31T12:03:00;1.85;;;1.12;;
23346;SDS011;36852;45.466;11.066;2023-08-31T12:05:26;1.05;;;0.75;;
23346;SDS011;36852;45.466;11.066;2023-08-31T12:07:55;1.90;;;0.70;;
23346;SDS011;36852;45.466;11.066;2023-08-31T12:10:24;5.12;;;1.52;;
23346;SDS011;36852;45.466;11.066;2023-08-31T12:12:52;3.05;;;1.07;;
23346;SDS011;36852;45.466;11.066;2023-08-31T12:15:29;1.30;;;0.90;;
23346;SDS011;36852;45.466;11.066;2023-08-31T12:17:55;1.32;;;1.10;;
23346;SDS011;36852;45.466;11.066;2023-08-31T12:20:24;1.55;;;0.90;;
23346;SDS011;36852;45.466;11.066;2023-08-31T12:22:56;1.37;;;1.27;;
23346;SDS011;36852;45.466;11.066;2023-08-31T12:25:24;3.02;;;1.30;;
23346;SDS011;36852;45.466;11.066;2023-08-31T12:27:52;2.35;;;1.00;;
23346;SDS011;36852;45.466;11.066;2023-08-31T12:30:20;3.15;;;1.75;;
23346;SDS011;36852;45.466;11.066;2023-08-31T12:32:48;4.42;;;1.67;;
23346;SDS011;36852;45.466;11.066;2023-08-31T12:35:17;2.55;;;1.00;;
23346;SDS011;36852;45.466;11.066;2023-08-31T12:37:45;1.42;;;1.02;;
23346;SDS011;36852;45.466;11.066;2023-08-31T12:40:15;2.55;;;0.95;;
23346;SDS011;36852;45.466;11.066;2023-08-31T12:42:45;1.98;;;0.93;;
23346;SDS011;36852;45.466;11.066;2023-08-31T12:45:14;3.58;;;1.32;;
23346;SDS011;36852;45.466;11.066;2023-08-31T12:47:43;2.52;;;2.22;;
23346;SDS011;36852;45.466;11.066;2023-08-31T12:50:14;3.98;;;1.75;;
23346;SDS011;36852;45.466;11.066;2023-08-31T12:52:42;4.20;;;1.75;;
23346;SDS011;36852;45.466;11.066;2023-08-31T12:55:14;1.62;;;1.10;;
23346;SDS011;36852;45.466;11.066;2023-08-31T12:57:45;2.92;;;1.92;;
23346;SDS011;36852;45.466;11.066;2023-08-31T13:00:16;7.22;;;1.15;;
23346;SDS011;36852;45.466;11.066;2023-08-31T13:02:47;3.52;;;1.40;;
23346;SDS011;36852;45.466;11.066;2023-08-31T13:05:19;1.82;;;1.00;;
23346;SDS011;36852;45.466;11.066;2023-08-31T13:07:48;3.58;;;1.07;;
23346;SDS011;36852;45.466;11.066;2023-08-31T13:10:16;1.70;;;0.98;;
23346;SDS011;36852;45.466;11.066;2023-08-31T13:12:44;2.62;;;1.00;;
23346;SDS011;36852;45.466;11.066;2023-08-31T13:15:13;3.02;;;1.12;;
23346;SDS011;36852;45.466;11.066;2023-08-31T13:17:42;4.05;;;1.22;;
23346;SDS011;36852;45.466;11.066;2023-08-31T13:20:10;4.00;;;0.90;;
23346;SDS011;36852;45.466;11.066;2023-08-31T13:22:52;1.92;;;1.07;;
23346;SDS011;36852;45.466;11.066;2023-08-31T13:25:19;3.22;;;1.50;;
23346;SDS011;36852;45.466;11.066;2023-08-31T13:27:47;4.33;;;1.10;;
23346;SDS011;36852;45.466;11.066;2023-08-31T13:30:15;1.72;;;1.20;;
23346;SDS011;36852;45.466;11.066;2023-08-31T13:32:44;1.92;;;1.07;;
23346;SDS011;36852;45.466;11.066;2023-08-31T13:35:12;3.85;;;1.02;;
23346;SDS011;36852;45.466;11.066;2023-08-31T13:37:40;1.55;;;1.10;;
23346;SDS011;36852;45.466;11.066;2023-08-31T13:40:09;1.75;;;1.00;;
23346;SDS011;36852;45.466;11.066;2023-08-31T13:42:57;3.25;;;1.32;;
23346;SDS011;36852;45.466;11.066;2023-08-31T13:45:35;2.25;;;1.10;;
23346;SDS011;36852;45.466;11.066;2023-08-31T13:48:04;1.82;;;1.30;;
23346;SDS011;36852;45.466;11.066;2023-08-31T13:50:32;1.95;;;1.17;;
23346;SDS011;36852;45.466;11.066;2023-08-31T13:53:00;3.40;;;1.35;;
23346;SDS011;36852;45.466;11.066;2023-08-31T13:55:31;5.17;;;1.27;;
23346;SDS011;36852;45.466;11.066;2023-08-31T13:58:05;2.22;;;1.35;;
23346;SDS011;36852;45.466;11.066;2023-08-31T14:00:34;4.50;;;1.50;;
23346;SDS011;36852;45.466;11.066;2023-08-31T14:03:04;4.10;;;1.72;;
23346;SDS011;36852;45.466;11.066;2023-08-31T14:05:34;3.08;;;2.10;;
23346;SDS011;36852;45.466;11.066;2023-08-31T14:08:07;1.77;;;0.98;;
23346;SDS011;36852;45.466;11.066;2023-08-31T14:10:41;3.42;;;2.02;;
23346;SDS011;36852;45.466;11.066;2023-08-31T14:13:30;4.80;;;1.30;;
23346;SDS011;36852;45.466;11.066;2023-08-31T14:16:19;2.77;;;1.65;;
23346;SDS011;36852;45.466;11.066;2023-08-31T14:19:06;2.85;;;1.20;;
23346;SDS011;36852;45.466;11.066;2023-08-31T14:21:55;6.28;;;1.60;;
23346;SDS011;36852;45.466;11.066;2023-08-31T14:24:52;4.12;;;1.82;;
23346;SDS011;36852;45.466;11.066;2023-08-31T14:27:28;2.80;;;1.45;;
23346;SDS011;36852;45.466;11.066;2023-08-31T14:30:04;4.33;;;1.60;;
23346;SDS011;36852;45.466;11.066;2023-08-31T14:32:36;3.12;;;1.40;;
23346;SDS011;36852;45.466;11.066;2023-08-31T14:35:24;2.85;;;1.60;;
23346;SDS011;36852;45.466;11.066;2023-08-31T14:37:57;3.62;;;1.80;;
23346;SDS011;36852;45.466;11.066;2023-08-31T14:40:25;4.85;;;1.60;;
23346;SDS011;36852;45.466;11.066;2023-08-31T14:42:57;3.35;;;1.57;;
23346;SDS011;36852;45.466;11.066;2023-08-31T14:45:26;3.80;;;2.08;;
23346;SDS011;36852;45.466;11.066;2023-08-31T14:48:12;6.47;;;1.90;;
23346;SDS011;36852;45.466;11.066;2023-08-31T14:50:43;2.35;;;1.80;;
23346;SDS011;36852;45.466;11.066;2023-08-31T14:53:12;3.58;;;1.90;;
23346;SDS011;36852;45.466;11.066;2023-08-31T14:55:40;6.12;;;2.00;;
23346;SDS011;36852;45.466;11.066;2023-08-31T14:58:08;4.25;;;1.60;;
23346;SDS011;36852;45.466;11.066;2023-08-31T15:00:37;2.42;;;1.82;;
23346;SDS011;36852;45.466;11.066;2023-08-31T15:03:05;5.20;;;1.82;;